sensor_id;sensor_type;location;lat;lon;timestamp;temperature;humidity
3860;DHT22;1945;52.036;8.614;2024-01-11T00:00:10;-7.50;1.00
3860;DHT22;1945;52.036;8.614;2024-01-11T00:02:36;-8.60;1.00
3860;DHT22;1945;52.036;8.614;2024-01-11T00:05:02;-7.40;1.00
3860;DHT22;1945;52.036;8.614;2024-01-11T00:07:29;-7.50;1.00
3860;DHT22;1945;52.036;8.614;2024-01-11T00:09:56;-8.10;1.00
3860;DHT22;1945;52.036;8.614;2024-01-11T00:12:22;-8.50;1.00
3860;DHT22;1945;52.036;8.614;2024-01-11T00:14:50;-8.00;1.00
3860;DHT22;1945;52.036;8.614;2024-01-11T00:17:17;-8.10;1.00
3860;DHT22;1945;52.036;8.614;2024-01-11T00:19:44;-7.50;1.00
3860;DHT22;1945;52.036;8.614;2024-01-11T00:22:10;-7.50;1.00
3860;DHT22;1945;52.036;8.614;2024-01-11T00:24:37;-7.60;1.00
3860;DHT22;1945;52.036;8.614;2024-01-11T00:27:04;-8.10;1.00
3860;DHT22;1945;52.036;8.614;2024-01-11T00:29:31;-7.50;1.00
3860;DHT22;1945;52.036;8.614;2024-01-11T00:31:59;-7.50;1.00
3860;DHT22;1945;52.036;8.614;2024-01-11T00:34:26;-7.60;1.00
3860;DHT22;1945;52.036;8.614;2024-01-11T00:36:52;-8.10;1.00
3860;DHT22;1945;52.036;8.614;2024-01-11T00:39:19;-7.60;1.00
3860;DHT22;1945;52.036;8.614;2024-01-11T00:41:46;-7.90;1.00
3860;DHT22;1945;52.036;8.614;2024-01-11T00:44:12;-8.10;1.00
3860;DHT22;1945;52.036;8.614;2024-01-11T00:46:39;-8.20;1.00
3860;DHT22;1945;52.036;8.614;2024-01-11T00:49:07;-7.50;1.00
3860;DHT22;1945;52.036;8.614;2024-01-11T00:51:34;-8.40;1.00
3860;DHT22;1945;52.036;8.614;2024-01-11T00:54:01;-7.90;1.00
3860;DHT22;1945;52.036;8.614;2024-01-11T00:56:27;-8.50;1.00
3860;DHT22;1945;52.036;8.614;2024-01-11T00:58:54;-7.70;1.00
3860;DHT22;1945;52.036;8.614;2024-01-11T01:01:21;-7.60;1.00
3860;DHT22;1945;52.036;8.614;2024-01-11T01:03:47;-7.70;1.00
3860;DHT22;1945;52.036;8.614;2024-01-11T01:06:15;-7.60;1.00
3860;DHT22;1945;52.036;8.614;2024-01-11T01:08:42;-7.70;1.00
3860;DHT22;1945;52.036;8.614;2024-01-11T01:11:09;-8.20;1.00
3860;DHT22;1945;52.036;8.614;2024-01-11T01:13:37;-8.20;1.00
3860;DHT22;1945;52.036;8.614;2024-01-11T01:16:07;-7.70;1.00
3860;DHT22;1945;52.036;8.614;2024-01-11T01:18:34;-7.70;1.00
3860;DHT22;1945;52.036;8.614;2024-01-11T01:21:03;-7.80;1.00
3860;DHT22;1945;52.036;8.614;2024-01-11T01:23:33;-7.80;1.00
3860;DHT22;1945;52.036;8.614;2024-01-11T01:26:00;-7.80;1.00
3860;DHT22;1945;52.036;8.614;2024-01-11T01:28:26;-7.80;1.00
3860;DHT22;1945;52.036;8.614;2024-01-11T01:30:53;-7.80;1.00
3860;DHT22;1945;52.036;8.614;2024-01-11T01:33:20;-7.90;1.00
3860;DHT22;1945;52.036;8.614;2024-01-11T01:35:46;-8.30;1.00
3860;DHT22;1945;52.036;8.614;2024-01-11T01:38:13;-7.80;1.00
3860;DHT22;1945;52.036;8.614;2024-01-11T01:40:42;-8.20;1.00
3860;DHT22;1945;52.036;8.614;2024-01-11T01:43:09;-7.90;1.00
3860;DHT22;1945;52.036;8.614;2024-01-11T01:45:36;-7.90;1.00
3860;DHT22;1945;52.036;8.614;2024-01-11T01:48:03;-7.90;1.00
3860;DHT22;1945;52.036;8.614;2024-01-11T01:50:31;-8.40;1.00
3860;DHT22;1945;52.036;8.614;2024-01-11T01:52:58;-8.50;1.00
3860;DHT22;1945;52.036;8.614;2024-01-11T01:55:26;-8.50;1.00
3860;DHT22;1945;52.036;8.614;2024-01-11T01:57:56;-7.90;1.00
3860;DHT22;1945;52.036;8.614;2024-01-11T02:00:24;-8.50;1.00
3860;DHT22;1945;52.036;8.614;2024-01-11T02:02:52;-8.50;1.00
3860;DHT22;1945;52.036;8.614;2024-01-11T02:05:19;-8.50;1.00
3860;DHT22;1945;52.036;8.614;2024-01-11T02:07:45;-7.90;1.00
3860;DHT22;1945;52.036;8.614;2024-01-11T02:10:12;-8.00;1.00
3860;DHT22;1945;52.036;8.614;2024-01-11T02:12:39;-8.00;1.00
3860;DHT22;1945;52.036;8.614;2024-01-11T02:15:09;-8.00;1.00
3860;DHT22;1945;52.036;8.614;2024-01-11T02:17:36;-8.00;1.00
3860;DHT22;1945;52.036;8.614;2024-01-11T02:20:03;-7.90;1.00
3860;DHT22;1945;52.036;8.614;2024-01-11T02:22:34;-8.50;1.00
3860;DHT22;1945;52.036;8.614;2024-01-11T02:25:03;-8.00;1.00
3860;DHT22;1945;52.036;8.614;2024-01-11T02:27:30;-8.40;1.00
3860;DHT22;1945;52.036;8.614;2024-01-11T02:29:56;-8.00;1.00
3860;DHT22;1945;52.036;8.614;2024-01-11T02:32:23;-8.60;1.00
3860;DHT22;1945;52.036;8.614;2024-01-11T02:34:50;-8.00;1.00
3860;DHT22;1945;52.036;8.614;2024-01-11T02:37:18;-7.90;1.00
3860;DHT22;1945;52.036;8.614;2024-01-11T02:39:44;-8.00;1.00
3860;DHT22;1945;52.036;8.614;2024-01-11T02:42:13;-8.60;1.00
3860;DHT22;1945;52.036;8.614;2024-01-11T02:44:39;-8.60;1.00
3860;DHT22;1945;52.036;8.614;2024-01-11T02:47:06;-8.00;1.00
3860;DHT22;1945;52.036;8.614;2024-01-11T02:49:32;-7.90;1.00
3860;DHT22;1945;52.036;8.614;2024-01-11T02:51:59;-7.90;1.00
3860;DHT22;1945;52.036;8.614;2024-01-11T02:54:26;-9.10;1.00
3860;DHT22;1945;52.036;8.614;2024-01-11T02:56:52;-7.90;1.00
3860;DHT22;1945;52.036;8.614;2024-01-11T02:59:20;-8.50;1.00
3860;DHT22;1945;52.036;8.614;2024-01-11T03:01:47;-8.60;1.00
3860;DHT22;1945;52.036;8.614;2024-01-11T03:04:14;-8.50;1.00
3860;DHT22;1945;52.036;8.614;2024-01-11T03:06:41;-8.10;1.00
3860;DHT22;1945;52.036;8.614;2024-01-11T03:09:07;-8.10;1.00
3860;DHT22;1945;52.036;8.614;2024-01-11T03:11:34;-8.00;1.00
3860;DHT22;1945;52.036;8.614;2024-01-11T03:14:03;-8.80;1.00
3860;DHT22;1945;52.036;8.614;2024-01-11T03:16:31;-8.10;1.00
3860;DHT22;1945;52.036;8.614;2024-01-11T03:18:57;-8.30;1.00
3860;DHT22;1945;52.036;8.614;2024-01-11T03:21:24;-8.20;1.00
3860;DHT22;1945;52.036;8.614;2024-01-11T03:23:51;-8.10;1.00
3860;DHT22;1945;52.036;8.614;2024-01-11T03:26:18;-8.20;1.00
3860;DHT22;1945;52.036;8.614;2024-01-11T03:28:44;-8.20;1.00
3860;DHT22;1945;52.036;8.614;2024-01-11T03:31:11;-8.20;1.00
3860;DHT22;1945;52.036;8.614;2024-01-11T03:33:39;-8.80;1.00
3860;DHT22;1945;52.036;8.614;2024-01-11T03:36:09;-9.20;1.00
3860;DHT22;1945;52.036;8.614;2024-01-11T03:38:36;-8.10;1.00
3860;DHT22;1945;52.036;8.614;2024-01-11T03:41:08;-8.40;1.00
3860;DHT22;1945;52.036;8.614;2024-01-11T03:43:35;-8.20;1.00
3860;DHT22;1945;52.036;8.614;2024-01-11T03:46:02;-8.70;1.00
3860;DHT22;1945;52.036;8.614;2024-01-11T03:48:29;-8.10;1.00
3860;DHT22;1945;52.036;8.614;2024-01-11T03:50:57;-8.20;1.00
3860;DHT22;1945;52.036;8.614;2024-01-11T03:53:23;-8.20;1.00
3860;DHT22;1945;52.036;8.614;2024-01-11T03:55:50;-8.20;1.00
3860;DHT22;1945;52.036;8.614;2024-01-11T03:58:16;-8.90;1.00
3860;DHT22;1945;52.036;8.614;2024-01-11T04:00:43;-8.10;1.00
3860;DHT22;1945;52.036;8.614;2024-01-11T04:03:10;-8.00;1.00
3860;DHT22;1945;52.036;8.614;2024-01-11T04:05:36;-8.80;1.00
3860;DHT22;1945;52.036;8.614;2024-01-11T04:08:05;-8.20;1.00
3860;DHT22;1945;52.036;8.614;2024-01-11T04:10:32;-8.80;1.00
3860;DHT22;1945;52.036;8.614;2024-01-11T04:12:59;-8.90;1.00
3860;DHT22;1945;52.036;8.614;2024-01-11T04:15:26;-8.20;1.00
3860;DHT22;1945;52.036;8.614;2024-01-11T04:17:53;-8.20;1.00
3860;DHT22;1945;52.036;8.614;2024-01-11T04:20:19;-8.20;1.00
3860;DHT22;1945;52.036;8.614;2024-01-11T04:22:46;-8.70;1.00
3860;DHT22;1945;52.036;8.614;2024-01-11T04:25:14;-8.20;1.00
3860;DHT22;1945;52.036;8.614;2024-01-11T04:27:41;-8.30;1.00
3860;DHT22;1945;52.036;8.614;2024-01-11T04:30:08;-8.30;1.00
3860;DHT22;1945;52.036;8.614;2024-01-11T04:32:34;-8.60;1.00
3860;DHT22;1945;52.036;8.614;2024-01-11T04:35:01;-8.20;1.00
3860;DHT22;1945;52.036;8.614;2024-01-11T04:37:28;-8.50;1.00
3860;DHT22;1945;52.036;8.614;2024-01-11T04:39:54;-8.30;1.00
3860;DHT22;1945;52.036;8.614;2024-01-11T04:42:26;-8.20;1.00
3860;DHT22;1945;52.036;8.614;2024-01-11T04:44:53;-8.80;1.00
3860;DHT22;1945;52.036;8.614;2024-01-11T04:47:20;-8.80;1.00
3860;DHT22;1945;52.036;8.614;2024-01-11T04:49:46;-8.40;1.00
3860;DHT22;1945;52.036;8.614;2024-01-11T04:52:13;-8.80;1.00
3860;DHT22;1945;52.036;8.614;2024-01-11T04:54:40;-8.80;1.00
3860;DHT22;1945;52.036;8.614;2024-01-11T04:57:07;-8.20;1.00
3860;DHT22;1945;52.036;8.614;2024-01-11T04:59:35;-8.20;1.00
3860;DHT22;1945;52.036;8.614;2024-01-11T05:02:01;-8.10;1.00
3860;DHT22;1945;52.036;8.614;2024-01-11T05:04:28;-8.70;1.00
3860;DHT22;1945;52.036;8.614;2024-01-11T05:06:55;-8.30;1.00
3860;DHT22;1945;52.036;8.614;2024-01-11T05:09:21;-8.10;1.00
3860;DHT22;1945;52.036;8.614;2024-01-11T05:11:48;-8.60;1.00
3860;DHT22;1945;52.036;8.614;2024-01-11T05:14:15;-8.10;1.00
3860;DHT22;1945;52.036;8.614;2024-01-11T05:16:43;-8.60;1.00
3860;DHT22;1945;52.036;8.614;2024-01-11T05:19:10;-8.10;1.00
3860;DHT22;1945;52.036;8.614;2024-01-11T05:21:36;-8.30;1.00
3860;DHT22;1945;52.036;8.614;2024-01-11T05:24:04;-8.60;1.00
3860;DHT22;1945;52.036;8.614;2024-01-11T05:26:31;-8.60;1.00
3860;DHT22;1945;52.036;8.614;2024-01-11T05:28:58;-8.90;1.00
3860;DHT22;1945;52.036;8.614;2024-01-11T05:31:25;-7.90;1.00
3860;DHT22;1945;52.036;8.614;2024-01-11T05:33:53;-7.90;1.00
3860;DHT22;1945;52.036;8.614;2024-01-11T05:36:19;-8.00;1.00
3860;DHT22;1945;52.036;8.614;2024-01-11T05:38:47;-8.00;1.00
3860;DHT22;1945;52.036;8.614;2024-01-11T05:41:13;-8.00;1.00
3860;DHT22;1945;52.036;8.614;2024-01-11T05:43:40;-8.00;1.00
3860;DHT22;1945;52.036;8.614;2024-01-11T05:46:08;-8.00;1.00
3860;DHT22;1945;52.036;8.614;2024-01-11T05:48:34;-8.60;1.00
3860;DHT22;1945;52.036;8.614;2024-01-11T05:51:03;-8.00;1.00
3860;DHT22;1945;52.036;8.614;2024-01-11T05:53:29;-8.10;1.00
3860;DHT22;1945;52.036;8.614;2024-01-11T05:56:00;-8.00;1.00
3860;DHT22;1945;52.036;8.614;2024-01-11T05:58:27;-7.80;1.00
3860;DHT22;1945;52.036;8.614;2024-01-11T06:00:53;-8.00;1.00
3860;DHT22;1945;52.036;8.614;2024-01-11T06:03:21;-8.00;1.00
3860;DHT22;1945;52.036;8.614;2024-01-11T06:05:47;-7.90;1.00
3860;DHT22;1945;52.036;8.614;2024-01-11T06:08:15;-8.40;1.00
3860;DHT22;1945;52.036;8.614;2024-01-11T06:10:42;-8.00;1.00
3860;DHT22;1945;52.036;8.614;2024-01-11T06:13:09;-8.20;17.90
3860;DHT22;1945;52.036;8.614;2024-01-11T06:15:36;-7.90;35.90
3860;DHT22;1945;52.036;8.614;2024-01-11T06:18:03;-7.90;75.10
3860;DHT22;1945;52.036;8.614;2024-01-11T06:20:30;-8.40;20.50
3860;DHT22;1945;52.036;8.614;2024-01-11T06:22:56;-8.50;22.60
3860;DHT22;1945;52.036;8.614;2024-01-11T06:25:24;-7.90;22.30
3860;DHT22;1945;52.036;8.614;2024-01-11T06:27:51;-7.80;77.90
3860;DHT22;1945;52.036;8.614;2024-01-11T06:30:18;-8.40;94.40
3860;DHT22;1945;52.036;8.614;2024-01-11T06:32:44;-7.80;99.90
3860;DHT22;1945;52.036;8.614;2024-01-11T06:35:11;-7.90;9.10
3860;DHT22;1945;52.036;8.614;2024-01-11T06:37:37;-7.80;58.60
3860;DHT22;1945;52.036;8.614;2024-01-11T06:40:05;-7.70;14.50
3860;DHT22;1945;52.036;8.614;2024-01-11T06:42:35;-8.30;44.10
3860;DHT22;1945;52.036;8.614;2024-01-11T06:45:01;-7.80;1.00
3860;DHT22;1945;52.036;8.614;2024-01-11T06:47:28;-7.80;1.00
3860;DHT22;1945;52.036;8.614;2024-01-11T06:49:55;-7.90;1.00
3860;DHT22;1945;52.036;8.614;2024-01-11T06:52:22;-8.40;1.00
3860;DHT22;1945;52.036;8.614;2024-01-11T06:54:48;-7.80;1.00
3860;DHT22;1945;52.036;8.614;2024-01-11T06:57:15;-7.80;1.00
3860;DHT22;1945;52.036;8.614;2024-01-11T06:59:43;-8.00;1.00
3860;DHT22;1945;52.036;8.614;2024-01-11T07:02:11;-8.10;1.00
3860;DHT22;1945;52.036;8.614;2024-01-11T07:04:43;-7.80;1.00
3860;DHT22;1945;52.036;8.614;2024-01-11T07:07:10;-7.90;1.00
3860;DHT22;1945;52.036;8.614;2024-01-11T07:09:36;-7.90;1.00
3860;DHT22;1945;52.036;8.614;2024-01-11T07:12:04;-7.80;1.00
3860;DHT22;1945;52.036;8.614;2024-01-11T07:14:31;-7.80;1.00
3860;DHT22;1945;52.036;8.614;2024-01-11T07:16:59;-7.80;1.00
3860;DHT22;1945;52.036;8.614;2024-01-11T07:19:25;-7.80;1.00
3860;DHT22;1945;52.036;8.614;2024-01-11T07:21:52;-7.90;1.00
3860;DHT22;1945;52.036;8.614;2024-01-11T07:24:19;-8.40;1.00
3860;DHT22;1945;52.036;8.614;2024-01-11T07:26:45;-7.80;1.00
3860;DHT22;1945;52.036;8.614;2024-01-11T07:29:12;-7.70;24.30
3860;DHT22;1945;52.036;8.614;2024-01-11T07:31:39;-7.70;1.00
3860;DHT22;1945;52.036;8.614;2024-01-11T07:34:07;-7.70;1.00
3860;DHT22;1945;52.036;8.614;2024-01-11T07:36:34;-7.70;11.10
3860;DHT22;1945;52.036;8.614;2024-01-11T07:39:00;-7.70;1.00
3860;DHT22;1945;52.036;8.614;2024-01-11T07:41:27;-8.30;1.00
3860;DHT22;1945;52.036;8.614;2024-01-11T07:43:54;-7.80;1.00
3860;DHT22;1945;52.036;8.614;2024-01-11T07:46:23;-7.70;10.50
3860;DHT22;1945;52.036;8.614;2024-01-11T07:48:50;-7.80;1.00
3860;DHT22;1945;52.036;8.614;2024-01-11T07:51:18;-8.30;1.00
3860;DHT22;1945;52.036;8.614;2024-01-11T07:53:45;-8.50;1.00
3860;DHT22;1945;52.036;8.614;2024-01-11T07:56:11;-7.60;1.00
3860;DHT22;1945;52.036;8.614;2024-01-11T07:58:40;-7.70;1.00
3860;DHT22;1945;52.036;8.614;2024-01-11T08:01:07;-7.60;1.00
3860;DHT22;1945;52.036;8.614;2024-01-11T08:03:33;-7.50;1.00
3860;DHT22;1945;52.036;8.614;2024-01-11T08:06:00;-7.70;1.00
3860;DHT22;1945;52.036;8.614;2024-01-11T08:08:28;-7.60;1.00
3860;DHT22;1945;52.036;8.614;2024-01-11T08:10:55;-7.50;1.00
3860;DHT22;1945;52.036;8.614;2024-01-11T08:13:22;-8.00;1.00
3860;DHT22;1945;52.036;8.614;2024-01-11T08:15:48;-7.40;1.00
3860;DHT22;1945;52.036;8.614;2024-01-11T08:18:18;-8.10;1.00
3860;DHT22;1945;52.036;8.614;2024-01-11T08:20:44;-7.40;1.00
3860;DHT22;1945;52.036;8.614;2024-01-11T08:23:11;-7.40;1.00
3860;DHT22;1945;52.036;8.614;2024-01-11T08:25:39;-7.40;1.00
3860;DHT22;1945;52.036;8.614;2024-01-11T08:28:06;-7.30;1.00
3860;DHT22;1945;52.036;8.614;2024-01-11T08:30:32;-7.20;1.00
3860;DHT22;1945;52.036;8.614;2024-01-11T08:32:59;-7.20;65.50
3860;DHT22;1945;52.036;8.614;2024-01-11T08:35:25;-7.50;70.40
3860;DHT22;1945;52.036;8.614;2024-01-11T08:37:53;-7.40;78.20
3860;DHT22;1945;52.036;8.614;2024-01-11T08:40:19;-7.60;65.80
3860;DHT22;1945;52.036;8.614;2024-01-11T08:42:48;-6.80;99.90
3860;DHT22;1945;52.036;8.614;2024-01-11T08:45:14;-7.50;99.90
3860;DHT22;1945;52.036;8.614;2024-01-11T08:47:43;-6.80;99.90
3860;DHT22;1945;52.036;8.614;2024-01-11T08:50:12;-6.80;99.90
3860;DHT22;1945;52.036;8.614;2024-01-11T08:52:39;-6.70;99.90
3860;DHT22;1945;52.036;8.614;2024-01-11T08:55:07;-7.20;99.90
3860;DHT22;1945;52.036;8.614;2024-01-11T08:57:33;-7.10;99.90
3860;DHT22;1945;52.036;8.614;2024-01-11T09:00:02;-7.10;99.90
3860;DHT22;1945;52.036;8.614;2024-01-11T09:02:31;-7.00;99.90
3860;DHT22;1945;52.036;8.614;2024-01-11T09:04:58;-6.40;99.90
3860;DHT22;1945;52.036;8.614;2024-01-11T09:07:24;-6.30;99.90
3860;DHT22;1945;52.036;8.614;2024-01-11T09:09:51;-6.80;99.90
3860;DHT22;1945;52.036;8.614;2024-01-11T09:12:19;-6.90;99.90
3860;DHT22;1945;52.036;8.614;2024-01-11T09:14:47;-6.40;99.90
3860;DHT22;1945;52.036;8.614;2024-01-11T09:17:15;-6.40;99.90
3860;DHT22;1945;52.036;8.614;2024-01-11T09:19:42;-6.10;99.90
3860;DHT22;1945;52.036;8.614;2024-01-11T09:22:08;-6.80;99.90
3860;DHT22;1945;52.036;8.614;2024-01-11T09:24:36;-5.80;99.90
3860;DHT22;1945;52.036;8.614;2024-01-11T09:27:02;-5.90;99.90
3860;DHT22;1945;52.036;8.614;2024-01-11T09:29:29;-5.70;99.90
3860;DHT22;1945;52.036;8.614;2024-01-11T09:31:56;-6.40;99.90
3860;DHT22;1945;52.036;8.614;2024-01-11T09:34:24;-5.70;99.90
3860;DHT22;1945;52.036;8.614;2024-01-11T09:36:50;-6.10;99.90
3860;DHT22;1945;52.036;8.614;2024-01-11T09:39:17;-6.20;99.90
3860;DHT22;1945;52.036;8.614;2024-01-11T09:41:58;-6.20;99.90
3860;DHT22;1945;52.036;8.614;2024-01-11T09:44:25;-5.60;99.90
3860;DHT22;1945;52.036;8.614;2024-01-11T09:46:53;-5.50;94.50
3860;DHT22;1945;52.036;8.614;2024-01-11T09:49:22;-5.30;57.80
3860;DHT22;1945;52.036;8.614;2024-01-11T09:51:51;-5.40;21.90
3860;DHT22;1945;52.036;8.614;2024-01-11T09:54:18;-5.30;1.00
3860;DHT22;1945;52.036;8.614;2024-01-11T09:56:46;-5.30;1.00
3860;DHT22;1945;52.036;8.614;2024-01-11T09:59:15;-5.20;1.00
3860;DHT22;1945;52.036;8.614;2024-01-11T10:01:43;-5.40;1.00
3860;DHT22;1945;52.036;8.614;2024-01-11T10:04:11;-5.50;1.00
3860;DHT22;1945;52.036;8.614;2024-01-11T10:06:39;-5.00;7.90
3860;DHT22;1945;52.036;8.614;2024-01-11T10:09:07;-5.00;30.30
3860;DHT22;1945;52.036;8.614;2024-01-11T10:11:33;-4.90;1.00
3860;DHT22;1945;52.036;8.614;2024-01-11T10:14:01;-4.90;1.00
3860;DHT22;1945;52.036;8.614;2024-01-11T10:16:28;-5.40;1.00
3860;DHT22;1945;52.036;8.614;2024-01-11T10:18:55;-5.30;1.00
3860;DHT22;1945;52.036;8.614;2024-01-11T10:21:23;-5.20;1.00
3860;DHT22;1945;52.036;8.614;2024-01-11T10:23:50;-4.50;1.00
3860;DHT22;1945;52.036;8.614;2024-01-11T10:26:19;-4.20;1.00
3860;DHT22;1945;52.036;8.614;2024-01-11T10:28:47;-4.10;1.00
3860;DHT22;1945;52.036;8.614;2024-01-11T10:31:14;-4.00;1.00
3860;DHT22;1945;52.036;8.614;2024-01-11T10:33:41;-3.90;1.00
3860;DHT22;1945;52.036;8.614;2024-01-11T10:36:08;-4.30;1.00
3860;DHT22;1945;52.036;8.614;2024-01-11T10:38:36;-4.20;1.00
3860;DHT22;1945;52.036;8.614;2024-01-11T10:41:05;-3.50;1.00
3860;DHT22;1945;52.036;8.614;2024-01-11T10:43:37;-3.50;1.00
3860;DHT22;1945;52.036;8.614;2024-01-11T10:46:04;-3.30;1.00
3860;DHT22;1945;52.036;8.614;2024-01-11T10:48:37;-3.20;1.00
3860;DHT22;1945;52.036;8.614;2024-01-11T10:51:07;-3.00;1.00
3860;DHT22;1945;52.036;8.614;2024-01-11T10:53:41;-3.50;1.00
3860;DHT22;1945;52.036;8.614;2024-01-11T10:56:09;-3.00;1.00
3860;DHT22;1945;52.036;8.614;2024-01-11T10:58:40;-3.40;1.00
3860;DHT22;1945;52.036;8.614;2024-01-11T11:01:08;-3.30;1.00
3860;DHT22;1945;52.036;8.614;2024-01-11T11:03:37;-2.80;1.00
3860;DHT22;1945;52.036;8.614;2024-01-11T11:06:05;-2.80;1.00
3860;DHT22;1945;52.036;8.614;2024-01-11T11:08:33;-2.70;1.00
3860;DHT22;1945;52.036;8.614;2024-01-11T11:11:01;-3.00;1.00
3860;DHT22;1945;52.036;8.614;2024-01-11T11:13:29;-2.60;1.00
3860;DHT22;1945;52.036;8.614;2024-01-11T11:15:57;-3.00;1.00
3860;DHT22;1945;52.036;8.614;2024-01-11T11:18:24;-2.40;1.00
3860;DHT22;1945;52.036;8.614;2024-01-11T11:20:51;-3.00;1.00
3860;DHT22;1945;52.036;8.614;2024-01-11T11:23:19;-2.90;4.30
3860;DHT22;1945;52.036;8.614;2024-01-11T11:25:47;-2.60;99.90
3860;DHT22;1945;52.036;8.614;2024-01-11T11:28:15;-2.80;99.90
3860;DHT22;1945;52.036;8.614;2024-01-11T11:30:43;-2.40;99.90
3860;DHT22;1945;52.036;8.614;2024-01-11T11:33:18;-2.70;99.90
3860;DHT22;1945;52.036;8.614;2024-01-11T11:35:46;-2.80;99.90
3860;DHT22;1945;52.036;8.614;2024-01-11T11:38:21;-2.70;99.90
3860;DHT22;1945;52.036;8.614;2024-01-11T11:40:51;-2.60;99.90
3860;DHT22;1945;52.036;8.614;2024-01-11T11:43:18;-2.00;1.00
3860;DHT22;1945;52.036;8.614;2024-01-11T11:45:47;-2.50;1.00
3860;DHT22;1945;52.036;8.614;2024-01-11T11:48:50;-2.00;99.90
3860;DHT22;1945;52.036;8.614;2024-01-11T11:51:18;-2.40;1.00
3860;DHT22;1945;52.036;8.614;2024-01-11T11:53:46;-2.40;1.00
3860;DHT22;1945;52.036;8.614;2024-01-11T11:56:14;-1.80;1.00
3860;DHT22;1945;52.036;8.614;2024-01-11T11:58:42;-2.30;1.00
3860;DHT22;1945;52.036;8.614;2024-01-11T12:01:09;-2.20;1.00
3860;DHT22;1945;52.036;8.614;2024-01-11T12:03:37;-2.20;1.00
3860;DHT22;1945;52.036;8.614;2024-01-11T12:06:07;-1.80;1.00
3860;DHT22;1945;52.036;8.614;2024-01-11T12:08:35;-1.60;1.00
3860;DHT22;1945;52.036;8.614;2024-01-11T12:11:02;-1.60;1.00
3860;DHT22;1945;52.036;8.614;2024-01-11T12:13:30;-2.10;1.00
3860;DHT22;1945;52.036;8.614;2024-01-11T12:15:57;-2.10;1.00
3860;DHT22;1945;52.036;8.614;2024-01-11T12:18:23;-2.10;1.00
3860;DHT22;1945;52.036;8.614;2024-01-11T12:20:51;-1.50;1.00
3860;DHT22;1945;52.036;8.614;2024-01-11T12:23:20;-1.50;1.00
3860;DHT22;1945;52.036;8.614;2024-01-11T12:25:47;-1.30;1.00
3860;DHT22;1945;52.036;8.614;2024-01-11T12:28:14;-1.90;1.00
3860;DHT22;1945;52.036;8.614;2024-01-11T12:30:41;-1.90;1.00
3860;DHT22;1945;52.036;8.614;2024-01-11T12:33:08;-1.80;1.00
3860;DHT22;1945;52.036;8.614;2024-01-11T12:35:37;-1.40;1.00
3860;DHT22;1945;52.036;8.614;2024-01-11T12:38:04;-1.80;1.00
3860;DHT22;1945;52.036;8.614;2024-01-11T12:40:33;-1.20;1.00
3860;DHT22;1945;52.036;8.614;2024-01-11T12:43:03;-1.70;1.00
3860;DHT22;1945;52.036;8.614;2024-01-11T12:45:29;-1.80;1.00
3860;DHT22;1945;52.036;8.614;2024-01-11T12:47:58;-1.20;1.00
3860;DHT22;1945;52.036;8.614;2024-01-11T12:50:25;-1.20;48.20
3860;DHT22;1945;52.036;8.614;2024-01-11T12:53:06;-1.10;98.70
3860;DHT22;1945;52.036;8.614;2024-01-11T12:55:34;-1.60;99.90
3860;DHT22;1945;52.036;8.614;2024-01-11T12:58:06;-1.10;99.90
3860;DHT22;1945;52.036;8.614;2024-01-11T13:00:32;-1.50;99.90
3860;DHT22;1945;52.036;8.614;2024-01-11T13:02:58;-1.10;99.90
3860;DHT22;1945;52.036;8.614;2024-01-11T13:05:25;-0.90;99.90
3860;DHT22;1945;52.036;8.614;2024-01-11T13:07:52;-1.00;99.90
3860;DHT22;1945;52.036;8.614;2024-01-11T13:10:19;-0.70;99.90
3860;DHT22;1945;52.036;8.614;2024-01-11T13:12:47;-0.70;99.90
3860;DHT22;1945;52.036;8.614;2024-01-11T13:15:13;-1.10;99.90
3860;DHT22;1945;52.036;8.614;2024-01-11T13:17:40;-0.80;99.90
3860;DHT22;1945;52.036;8.614;2024-01-11T13:20:07;-0.80;1.00
3860;DHT22;1945;52.036;8.614;2024-01-11T13:22:34;-1.20;1.00
3860;DHT22;1945;52.036;8.614;2024-01-11T13:25:01;-1.20;1.00
3860;DHT22;1945;52.036;8.614;2024-01-11T13:27:27;-0.80;1.00
3860;DHT22;1945;52.036;8.614;2024-01-11T13:29:55;-1.20;1.00
3860;DHT22;1945;52.036;8.614;2024-01-11T13:32:23;-0.50;1.00
3860;DHT22;1945;52.036;8.614;2024-01-11T13:34:50;-0.60;1.00
3860;DHT22;1945;52.036;8.614;2024-01-11T13:37:18;-0.80;1.00
3860;DHT22;1945;52.036;8.614;2024-01-11T13:39:45;-0.60;1.00
3860;DHT22;1945;52.036;8.614;2024-01-11T13:42:12;-0.60;99.90
3860;DHT22;1945;52.036;8.614;2024-01-11T13:44:38;-1.00;1.00
3860;DHT22;1945;52.036;8.614;2024-01-11T13:47:06;-0.90;99.90
3860;DHT22;1945;52.036;8.614;2024-01-11T13:49:33;-0.20;99.90
3860;DHT22;1945;52.036;8.614;2024-01-11T13:52:01;-0.90;99.90
3860;DHT22;1945;52.036;8.614;2024-01-11T13:54:29;-0.40;99.90
3860;DHT22;1945;52.036;8.614;2024-01-11T13:56:56;-0.60;99.90
3860;DHT22;1945;52.036;8.614;2024-01-11T13:59:23;-1.10;99.90
3860;DHT22;1945;52.036;8.614;2024-01-11T14:01:50;-1.00;99.90
3860;DHT22;1945;52.036;8.614;2024-01-11T14:04:18;-1.00;99.90
3860;DHT22;1945;52.036;8.614;2024-01-11T14:06:48;-0.50;99.90
3860;DHT22;1945;52.036;8.614;2024-01-11T14:09:16;-0.50;99.90
3860;DHT22;1945;52.036;8.614;2024-01-11T14:11:43;-0.80;99.90
3860;DHT22;1945;52.036;8.614;2024-01-11T14:14:10;-0.30;99.90
3860;DHT22;1945;52.036;8.614;2024-01-11T14:16:36;-0.50;99.90
3860;DHT22;1945;52.036;8.614;2024-01-11T14:19:03;-1.00;99.90
3860;DHT22;1945;52.036;8.614;2024-01-11T14:21:31;-0.40;99.90
3860;DHT22;1945;52.036;8.614;2024-01-11T14:23:58;-0.50;99.90
3860;DHT22;1945;52.036;8.614;2024-01-11T14:26:24;-0.70;99.90
3860;DHT22;1945;52.036;8.614;2024-01-11T14:28:51;-0.50;1.00
3860;DHT22;1945;52.036;8.614;2024-01-11T14:31:19;-1.00;1.00
3860;DHT22;1945;52.036;8.614;2024-01-11T14:33:46;-0.30;1.00
3860;DHT22;1945;52.036;8.614;2024-01-11T14:36:13;-0.50;1.00
3860;DHT22;1945;52.036;8.614;2024-01-11T14:38:42;-0.40;1.00
3860;DHT22;1945;52.036;8.614;2024-01-11T14:41:09;-0.80;1.00
3860;DHT22;1945;52.036;8.614;2024-01-11T14:43:36;-0.80;1.00
3860;DHT22;1945;52.036;8.614;2024-01-11T14:46:03;-0.20;1.00
3860;DHT22;1945;52.036;8.614;2024-01-11T14:48:30;-0.80;1.00
3860;DHT22;1945;52.036;8.614;2024-01-11T14:50:57;-0.70;1.00
3860;DHT22;1945;52.036;8.614;2024-01-11T14:53:24;-0.70;1.00
3860;DHT22;1945;52.036;8.614;2024-01-11T14:55:52;-0.30;1.00
3860;DHT22;1945;52.036;8.614;2024-01-11T14:58:19;-0.70;1.00
3860;DHT22;1945;52.036;8.614;2024-01-11T15:00:46;-0.10;1.00
3860;DHT22;1945;52.036;8.614;2024-01-11T15:03:13;-0.70;1.00
3860;DHT22;1945;52.036;8.614;2024-01-11T15:05:39;-0.70;1.00
3860;DHT22;1945;52.036;8.614;2024-01-11T15:08:06;-0.60;1.00
3860;DHT22;1945;52.036;8.614;2024-01-11T15:10:33;0.00;1.00
3860;DHT22;1945;52.036;8.614;2024-01-11T15:13:01;-0.10;1.00
3860;DHT22;1945;52.036;8.614;2024-01-11T15:15:27;-0.60;1.00
3860;DHT22;1945;52.036;8.614;2024-01-11T15:17:54;-0.60;1.00
3860;DHT22;1945;52.036;8.614;2024-01-11T15:20:21;0.10;1.00
3860;DHT22;1945;52.036;8.614;2024-01-11T15:22:48;-0.10;1.00
3860;DHT22;1945;52.036;8.614;2024-01-11T15:25:15;-0.60;1.00
3860;DHT22;1945;52.036;8.614;2024-01-11T15:27:42;-0.50;1.00
3860;DHT22;1945;52.036;8.614;2024-01-11T15:30:11;0.00;1.00
3860;DHT22;1945;52.036;8.614;2024-01-11T15:32:38;-0.50;1.00
3860;DHT22;1945;52.036;8.614;2024-01-11T15:35:05;0.00;1.00
3860;DHT22;1945;52.036;8.614;2024-01-11T15:37:33;-0.50;58.10
3860;DHT22;1945;52.036;8.614;2024-01-11T15:40:00;0.10;99.90
3860;DHT22;1945;52.036;8.614;2024-01-11T15:42:27;-0.50;99.90
3860;DHT22;1945;52.036;8.614;2024-01-11T15:44:55;-0.50;99.90
3860;DHT22;1945;52.036;8.614;2024-01-11T15:47:24;-0.50;99.90
3860;DHT22;1945;52.036;8.614;2024-01-11T15:49:51;-0.50;99.90
3860;DHT22;1945;52.036;8.614;2024-01-11T15:52:34;-0.50;99.90
3860;DHT22;1945;52.036;8.614;2024-01-11T15:55:29;-0.40;99.90
3860;DHT22;1945;52.036;8.614;2024-01-11T15:58:33;-0.40;99.90
3860;DHT22;1945;52.036;8.614;2024-01-11T16:01:01;-0.40;99.90
3860;DHT22;1945;52.036;8.614;2024-01-11T16:03:31;0.20;99.90
3860;DHT22;1945;52.036;8.614;2024-01-11T16:06:00;-0.30;99.90
3860;DHT22;1945;52.036;8.614;2024-01-11T16:08:31;-0.30;99.90
3860;DHT22;1945;52.036;8.614;2024-01-11T16:10:59;-0.30;99.90
3860;DHT22;1945;52.036;8.614;2024-01-11T16:13:47;-0.20;99.90
3860;DHT22;1945;52.036;8.614;2024-01-11T16:16:15;-0.10;99.90